Time;durP1;ratioP1;P1;durP2;ratioP2;P2;SDS_P1;SDS_P2;PMS_P1;PMS_P2;Temp;Humidity;BMP_temperature;BMP_pressure;BME280_temperature;BME280_humidity;BME280_pressure;Samples;Min_cycle;Max_cycle;Signal;HPM_P1;HPM_P2
2021/08/02 00:14:23;;;;;;;;;;;;;;;;;;;;;
2021/08/02 00:18:10;;;;;;;;;;;;;;;;;;;;;
2021/08/02 00:21:26;;;;;;;;;;;;;;;;;;;;;
2021/08/02 00:34:53;;;;;;;;;;;;;;;;;;;;;
2021/08/02 00:38:02;;;;;;;;;;;;;;;;;;;;;
2021/08/02 00:41:25;;;;;;;;;;;;;;;;;;;;;
2021/08/02 00:44:26;;;;;;;;;2.00;2.00;;;;;20.18;53.31;101061.72;4953960;28;72886;-90
2021/08/02 00:47:54;;;;;;;;;;;;;;;;;;;;;
2021/08/02 00:54:02;;;;;;;;;2.25;2.25;;;;;20.05;53.66;101057.78;4886731;29;45900;-89
2021/08/02 00:56:31;;;;;;;;;3.75;3.50;;;;;20.14;53.11;101067.22;4938520;28;45361;-90
2021/08/02 00:59:10;;;;;;;;;2.33;1.00;;;;;20.08;53.29;101062.13;5002789;28;45413;-90
2021/08/02 01:01:37;;;;;;;;;3.00;3.00;;;;;20.08;53.53;101064.81;4984917;28;44846;-89
2021/08/02 01:04:14;;;;;;;;;;;;;;;;;;;;;
2021/08/02 01:06:42;;;;;;;;;3.33;3.33;;;;;19.87;53.96;101050.44;5000983;28;71318;-89
2021/08/02 01:09:12;;;;;;;;;3.00;3.00;;;;;19.84;54.25;101051.44;4989569;28;44690;-89
2021/08/02 01:11:53;;;;;;;;;;;;;;;;;;;;;
2021/08/02 01:14:20;;;;;;;;;3.67;3.00;;;;;19.77;54.50;101057.91;4985733;28;75344;-89
2021/08/02 01:16:47;;;;;;;;;3.25;3.25;;;;;19.77;54.85;101057.91;4983809;28;45452;-91
2021/08/02 01:19:19;;;;;;;;;4.00;3.00;;;;;19.79;54.53;101072.09;4992399;28;45399;-90
2021/08/02 01:21:49;;;;;;;;;3.33;3.00;;;;;19.74;54.84;101079.41;4994766;28;45973;-89
2021/08/02 01:24:15;;;;;;;;;4.00;3.00;;;;;19.61;55.20;101068.25;4994480;28;47142;-90
2021/08/02 01:26:44;;;;;;;;;2.33;2.33;;;;;19.62;54.94;101070.03;4993188;28;45290;-90
2021/08/02 01:29:47;;;;;;;;;3.75;3.75;;;;;19.56;55.45;101068.41;4981828;28;45327;-88
2021/08/02 01:32:18;;;;;;;;;2.67;2.67;;;;;19.51;55.24;101066.84;4995271;28;45218;-88
2021/08/02 01:35:26;;;;;;;;;;;;;;;;;;;;;
2021/08/02 01:39:24;;;;;;;;;;;;;;;;;;;;;
2021/08/02 01:44:51;;;;;;;;;5.00;4.00;;;;;19.44;55.65;101057.31;4986237;28;45475;-90
2021/08/02 01:51:32;;;;;;;;;;;;;;;;;;;;;
2021/08/02 01:54:28;;;;;;;;;3.50;3.00;;;;;19.41;55.79;101062.78;4966889;28;67571;-90
2021/08/02 01:57:31;;;;;;;;;3.67;3.33;;;;;19.35;56.12;101062.06;4962569;28;45327;-89
2021/08/02 02:00:09;;;;;;;;;2.33;2.00;;;;;19.35;56.29;101062.06;4928806;28;47657;-90
2021/08/02 02:03:10;;;;;;;;;;;;;;;;;;;;;
2021/08/02 02:05:52;;;;;;;;;4.00;4.00;;;;;19.24;56.16;101048.19;5007127;28;67606;-89
2021/08/02 02:08:51;;;;;;;;;5.00;4.00;;;;;19.25;56.34;101052.63;4999034;28;45431;-89
2021/08/02 02:11:22;;;;;;;;;4.33;4.33;;;;;19.28;56.08;101052.50;4963052;28;47644;-90
2021/08/02 02:14:14;;;;;;;;;4.00;4.00;;;;;19.30;56.34;101065.78;4970209;28;45697;-90
2021/08/02 02:16:53;;;;;;;;;4.00;4.00;;;;;19.24;56.46;101058.00;4979286;28;45356;-90
2021/08/02 02:20:14;;;;;;;;;6.50;4.75;;;;;19.30;56.42;101057.78;4989297;28;45666;-89
2021/08/02 02:22:38;;;;;;;;;4.00;4.00;;;;;19.28;56.47;101055.19;4998473;28;45357;-89
2021/08/02 02:25:13;;;;;;;;;5.25;4.25;;;;;19.29;56.51;101058.72;4971690;28;45309;-90
2021/08/02 02:27:51;;;;;;;;;;;;;;;;;;;;;
2021/08/02 02:30:18;;;;;;;;;6.25;5.25;;;;;19.22;56.84;101052.75;4990380;28;71775;-89
2021/08/02 02:32:54;;;;;;;;;5.00;4.00;;;;;19.26;56.60;101062.38;4979466;28;45443;-89
2021/08/02 02:35:40;;;;;;;;;;;;;;;;;;;;;
2021/08/02 02:38:21;;;;;;;;;6.75;5.25;;;;;19.15;56.46;101048.53;4987518;28;68344;-90
2021/08/02 02:41:22;;;;;;;;;;;;;;;;;;;;;
2021/08/02 02:44:12;;;;;;;;;7.00;7.00;;;;;19.25;56.77;101065.09;4984167;28;73984;-90
2021/08/02 02:46:46;;;;;;;;;5.00;4.25;;;;;19.23;56.82;101062.47;4976150;28;45440;-89
2021/08/02 02:49:14;;;;;;;;;5.25;5.25;;;;;19.14;56.75;101041.47;4977254;28;45338;-89
2021/08/02 02:51:43;;;;;;;;;8.75;6.00;;;;;19.15;56.82;101048.53;4982758;28;45453;-89
2021/08/02 02:54:14;;;;;;;;;5.00;4.00;;;;;19.15;57.39;101054.72;4990988;28;46998;-89
2021/08/02 02:57:01;;;;;;;;;5.25;5.25;;;;;19.22;57.04;101066.09;4998437;28;44664;-90
2021/08/02 02:59:39;;;;;;;;;5.00;3.00;;;;;19.18;56.96;101059.97;4992044;28;44799;-89
2021/08/02 03:02:10;;;;;;;;;4.00;4.00;;;;;19.09;57.33;101046.94;4969446;28;45467;-89
2021/08/02 03:04:58;;;;;;;;;5.50;5.50;;;;;19.07;57.29;101046.13;4974418;28;46910;-89
2021/08/02 03:07:43;;;;;;;;;3.00;3.00;;;;;19.11;57.01;101054.88;4974829;28;45234;-89
2021/08/02 03:10:15;;;;;;;;;4.00;2.25;;;;;19.16;57.21;101061.84;4968736;28;45477;-89
2021/08/02 03:12:51;;;;;;;;;;;;;;;;;;;;;
2021/08/02 03:15:31;;;;;;;;;5.33;4.33;;;;;19.10;57.12;101051.34;4983664;28;75324;-89
2021/08/02 03:17:59;;;;;;;;;4.00;3.00;;;;;19.14;57.47;101062.81;4959458;28;46019;-90
2021/08/02 03:20:37;;;;;;;;;;;;;;;;;;;;;
2021/08/02 03:23:27;;;;;;;;;4.00;3.50;;;;;19.03;57.41;101057.84;5012918;28;72199;-89
2021/08/02 03:26:05;;;;;;;;;4.00;4.00;;;;;19.11;57.31;101078.91;4970851;28;47808;-89
2021/08/02 03:28:54;;;;;;;;;5.00;4.00;;;;;18.97;57.72;101060.69;4989504;28;44815;-90
2021/08/02 03:31:33;;;;;;;;;3.00;3.00;;;;;19.03;57.83;101078.28;5002103;28;45129;-89
2021/08/02 03:34:13;;;;;;;;;5.00;4.50;;;;;18.97;57.45;101062.50;4982780;28;45636;-88
2021/08/02 03:36:46;;;;;;;;;5.75;5.75;;;;;19.07;57.61;101078.13;5004783;28;46965;-89
2021/08/02 03:39:18;;;;;;;;;3.00;3.00;;;;;19.07;58.09;101087.94;5027902;28;44721;-90
2021/08/02 03:45:19;;;;;;;;;;;;;;;;;;;;;
2021/08/02 03:51:21;;;;;;;;;;;;;;;;;;;;;
2021/08/02 03:54:02;;;;;;;;;2.75;2.75;;;;;19.03;57.99;101091.63;5011763;28;69040;-89
2021/08/02 03:57:38;;;;;;;;;;;;;;;;;;;;;
2021/08/02 04:00:25;;;;;;;;;;;;;;;;;;;;;
2021/08/02 04:03:24;;;;;;;;;;;;;;;;;;;;;
2021/08/02 04:06:40;;;;;;;;;;;;;;;;;;;;;
2021/08/02 04:10:20;;;;;;;;;;;;;;;;;;;;;
2021/08/02 04:12:53;;;;;;;;;3.67;2.67;;;;;18.92;58.88;101126.66;5006909;28;45582;-89
2021/08/02 04:16:08;;;;;;;;;;;;;;;;;;;;;
2021/08/02 04:18:53;;;;;;;;;;;;;;;;;;;;;
2021/08/02 04:21:50;;;;;;;;;;;;;;;;;;;;;
2021/08/02 04:24:19;;;;;;;;;3.00;3.00;;;;;18.76;59.00;101122.75;4997951;28;46233;-89
2021/08/02 04:26:57;;;;;;;;;;;;;;;;;;;;;
2021/08/02 04:29:28;;;;;;;;;3.00;3.00;;;;;18.72;58.98;101130.81;4984944;28;67949;-89
2021/08/02 04:32:07;;;;;;;;;3.00;3.00;;;;;18.73;58.70;101134.34;4984598;28;45363;-89
2021/08/02 04:35:19;;;;;;;;;;;;;;;;;;;;;
2021/08/02 04:48:11;;;;;;;;;4.00;4.00;;;;;18.73;59.16;101119.22;4952553;28;46388;-90
2021/08/02 04:51:16;;;;;;;;;5.50;4.50;;;;;18.69;59.15;101117.59;5001442;28;45399;-89
2021/08/02 04:54:24;;;;;;;;;;;;;;;;;;;;;
2021/08/02 04:57:01;;;;;;;;;4.75;3.00;;;;;18.77;58.82;101125.38;5003571;28;71794;-90
2021/08/02 04:59:30;;;;;;;;;5.75;5.00;;;;;18.71;59.18;101115.75;4988043;28;47558;-90
2021/08/02 05:02:17;;;;;;;;;;;;;;;;;;;;;
2021/08/02 05:04:58;;;;;;;;;;;;;;;;;;;;;
2021/08/02 05:08:23;;;;;;;;;;;;;;;;;;;;;
2021/08/02 05:17:32;;;;;;;;;;;;;;;;;;;;;
2021/08/02 05:20:21;;;;;;;;;5.33;4.00;;;;;18.95;58.83;101143.47;5010507;28;71795;-87
2021/08/02 05:26:35;;;;;;;;;;;;;;;;;;;;;
2021/08/02 05:29:27;;;;;;;;;;;;;;;;;;;;;
2021/08/02 05:32:03;;;;;;;;;3.50;3.50;;;;;19.00;58.94;101137.09;4992812;28;72731;-88
2021/08/02 05:34:45;;;;;;;;;4.00;4.00;;;;;19.04;58.96;101144.09;4985760;28;47173;-89
2021/08/02 05:37:36;;;;;;;;;4.00;4.00;;;;;19.11;59.28;101149.19;4953493;28;45257;-89
2021/08/02 05:40:31;;;;;;;;;;;;;;;;;;;;;
2021/08/02 05:46:43;;;;;;;;;5.00;3.25;;;;;19.28;58.78;101145.09;4983372;28;45119;-89
2021/08/02 05:52:48;;;;;;;;;;;;;;;;;;;;;
2021/08/02 05:55:46;;;;;;;;;5.00;4.00;;;;;19.37;58.18;101164.31;4988747;28;72305;-90
2021/08/02 05:58:35;;;;;;;;;4.00;4.00;;;;;19.33;58.49;101154.69;4984028;28;47650;-90
2021/08/02 06:01:31;;;;;;;;;;;;;;;;;;;;;
2021/08/02 06:07:13;;;;;;;;;4.50;4.00;;;;;19.34;58.12;101144.88;4975092;28;45232;-90
2021/08/02 06:10:02;;;;;;;;;;;;;;;;;;;;;
2021/08/02 06:12:52;;;;;;;;;;;;;;;;;;;;;
2021/08/02 06:15:46;;;;;;;;;;;;;;;;;;;;;
2021/08/02 06:18:29;;;;;;;;;6.00;6.00;;;;;19.53;58.52;101161.13;4980519;28;72585;-90
2021/08/02 06:21:45;;;;;;;;;;;;;;;;;;;;;
2021/08/02 06:24:44;;;;;;;;;;;;;;;;;;;;;
2021/08/02 06:27:30;;;;;;;;;;;;;;;;;;;;;
2021/08/02 06:30:26;;;;;;;;;;;;;;;;;;;;;
2021/08/02 06:33:14;;;;;;;;;6.00;5.00;;;;;19.75;57.83;101171.97;4994304;28;74772;-87
2021/08/02 06:35:40;;;;;;;;;7.00;6.50;;;;;19.76;58.03;101163.06;4992704;28;45511;-83
2021/08/02 06:38:53;;;;;;;;;;;;;;;;;;;;;
2021/08/02 06:41:21;;;;;;;;;6.00;6.00;;;;;19.83;58.07;101168.13;5005629;28;73349;-85
2021/08/02 06:56:24;;;;;;;;;7.00;6.00;;;;;19.93;57.49;101155.31;4843117;29;45585;-91
2021/08/02 07:01:40;;;;;;;;;;;;;;;;;;;;;
2021/08/02 07:04:22;;;;;;;;;7.25;5.75;;;;;20.23;57.49;101176.50;5015497;28;69997;-87
2021/08/02 07:07:09;;;;;;;;;;;;;;;;;;;;;
2021/08/02 07:09:36;;;;;;;;;5.25;5.00;;;;;20.36;56.77;101176.91;5014482;28;74168;-87
2021/08/02 07:12:04;;;;;;;;;5.75;5.50;;;;;20.37;56.67;101174.19;4988015;28;45432;-86
2021/08/02 07:14:33;;;;;;;;;8.00;6.00;;;;;20.48;56.81;101185.34;4992935;28;45183;-88
2021/08/02 07:16:58;;;;;;;;;7.25;6.50;;;;;20.48;56.51;101176.47;5002001;28;46105;-87
2021/08/02 07:29:55;;;;;;;;;5.00;5.00;;;;;20.79;56.38;101181.50;4884606;29;45480;-88
2021/08/02 07:32:41;;;;;;;;;10.50;9.50;;;;;20.78;55.98;101173.56;4875792;29;47706;-86
2021/08/02 07:35:07;;;;;;;;;8.25;7.00;;;;;20.84;56.08;101166.16;4920497;28;45414;-88
2021/08/02 07:37:41;;;;;;;;;4.00;3.67;;;;;20.93;56.04;101172.97;4989397;28;45592;-88
2021/08/02 07:40:11;;;;;;;;;4.67;4.67;;;;;21.01;55.65;101181.56;4996852;28;45641;-85
2021/08/02 07:43:08;;;;;;;;;6.50;6.50;;;;;21.06;55.33;101179.56;4984576;28;48280;-86
2021/08/02 07:49:55;;;;;;;;;6.25;5.25;;;;;21.21;55.09;101167.34;4884889;29;45484;-86
2021/08/02 07:52:49;;;;;;;;;8.00;7.50;;;;;21.30;54.84;101174.13;4868372;29;45538;-86
2021/08/02 07:55:15;;;;;;;;;6.00;5.00;;;;;21.42;54.51;101180.81;4868821;29;46383;-87
2021/08/02 07:57:43;;;;;;;;;6.00;5.00;;;;;21.46;54.12;101169.88;4867909;29;45296;-89
2021/08/02 08:00:47;;;;;;;;;6.00;6.00;;;;;21.58;54.69;101184.59;4916251;28;45639;-88
2021/08/02 08:06:49;;;;;;;;;;;;;;;;;;;;;
2021/08/02 08:12:18;;;;;;;;;5.33;5.00;;;;;21.82;53.36;101171.94;4982128;28;45616;-85
2021/08/02 08:15:41;;;;;;;;;3.33;3.33;;;;;21.94;53.13;101183.94;4991885;28;45356;-93
2021/08/02 08:29:38;;;;;;;;;4.00;4.00;;;;;22.20;52.71;101156.84;4964246;28;45462;-88
2021/08/02 08:32:07;;;;;;;;;5.33;5.00;;;;;22.27;52.50;101165.50;4983166;28;46344;-83
2021/08/02 08:34:35;;;;;;;;;7.00;5.33;;;;;22.36;52.42;101164.19;4981329;28;45270;-89
2021/08/02 08:37:01;;;;;;;;;7.00;5.00;;;;;22.49;52.10;101169.88;4957024;28;45554;-89
2021/08/02 08:45:26;;;;;;;;;6.00;5.33;;;;;22.72;51.25;101168.78;5640053;22;45939;-82
2021/08/02 08:48:31;;;;;;;;;5.00;4.33;;;;;22.81;51.42;101166.53;5019351;28;45237;-89
2021/08/02 08:51:02;;;;;;;;;7.33;5.33;;;;;22.87;51.04;101170.72;4999017;28;45484;-79
2021/08/02 08:53:28;;;;;;;;;5.00;3.00;;;;;22.86;50.38;101158.25;4988487;28;47060;-83
2021/08/02 08:55:53;;;;;;;;;6.00;5.00;;;;;22.96;50.65;101164.97;4989504;28;45453;-79
2021/08/02 08:58:19;;;;;;;;;8.33;6.33;;;;;23.03;50.52;101168.22;4990351;28;45358;-80
2021/08/02 09:00:44;;;;;;;;;5.00;5.00;;;;;23.06;50.73;101168.06;4981903;28;45410;-79
2021/08/02 09:03:12;;;;;;;;;5.67;5.67;;;;;23.15;49.85;101182.84;4996602;28;47029;-78
2021/08/02 09:05:38;;;;;;;;;5.00;5.00;;;;;23.11;49.69;101177.63;4992906;28;45369;-79
2021/08/02 09:08:05;;;;;;;;;3.00;3.00;;;;;23.11;48.70;101172.25;4995971;28;45460;-78
2021/08/02 09:10:31;;;;;;;;;4.00;3.00;;;;;23.11;48.59;101166.88;4993408;28;45565;-81
2021/08/02 09:13:00;;;;;;;;;4.33;4.33;;;;;23.19;48.57;101169.19;5006208;28;45418;-78
2021/08/02 09:15:37;;;;;;;;;4.00;4.00;;;;;23.24;48.23;101177.88;4981216;28;45734;-79
2021/08/02 09:18:09;;;;;;;;;3.67;3.67;;;;;23.23;47.90;101172.56;5004138;28;45360;-77
2021/08/02 09:20:37;;;;;;;;;4.00;4.00;;;;;23.19;48.15;101176.38;4997270;28;45308;-80
2021/08/02 09:23:12;;;;;;;;;2.67;2.33;;;;;23.18;47.86;101178.19;5009577;28;46349;-80
2021/08/02 09:25:49;;;;;;;;;4.00;4.00;;;;;23.15;48.32;101174.78;4986045;28;45470;-79
2021/08/02 09:28:17;;;;;;;;;5.00;3.33;;;;;23.16;47.64;101176.53;4993562;28;45546;-80
2021/08/02 09:31:03;;;;;;;;;3.00;3.00;;;;;23.17;47.97;101168.38;4980619;28;45503;-81
2021/08/02 09:33:43;;;;;;;;;3.00;3.00;;;;;23.27;47.98;101161.63;4975948;28;48259;-81
2021/08/02 09:36:09;;;;;;;;;6.67;6.00;;;;;23.39;47.85;101170.00;4974525;28;45550;-81
2021/08/02 09:38:34;;;;;;;;;3.00;3.00;;;;;23.47;47.35;101163.31;5006189;28;45399;-81
2021/08/02 09:41:00;;;;;;;;;5.00;4.00;;;;;23.54;47.37;101161.16;4994438;28;45779;-83
2021/08/02 09:43:28;;;;;;;;;3.00;3.00;;;;;23.66;47.25;101173.13;4986940;28;46908;-81
2021/08/02 09:45:59;;;;;;;;;4.00;4.00;;;;;23.76;46.94;101167.22;4994801;28;45313;-81
2021/08/02 09:48:41;;;;;;;;;4.00;4.00;;;;;23.86;46.87;101162.22;4966769;28;45424;-81
2021/08/02 09:51:14;;;;;;;;;3.33;3.33;;;;;24.00;46.25;101169.53;4961289;28;45516;-83
2021/08/02 09:53:47;;;;;;;;;3.00;3.00;;;;;24.13;45.79;101167.06;4983176;28;48191;-81
2021/08/02 09:56:15;;;;;;;;;5.00;4.00;;;;;24.17;44.86;101166.84;4977264;28;45734;-84
2021/08/02 09:58:42;;;;;;;;;4.00;4.00;;;;;24.18;44.71;101165.00;4983994;28;45381;-83
2021/08/02 10:01:10;;;;;;;;;4.00;4.00;;;;;24.17;44.47;101153.38;4969695;28;45669;-84
2021/08/02 10:03:40;;;;;;;;;5.33;4.33;;;;;24.12;44.71;101159.97;4964435;28;47341;-85
2021/08/02 10:07:11;;;;;;;;;;;;;;;;;;;;;
2021/08/02 10:09:50;;;;;;;;;5.00;4.00;;;;;24.13;45.40;101145.56;4980924;28;68982;-85
2021/08/02 10:12:31;;;;;;;;;5.00;5.00;;;;;24.19;45.01;101156.88;4985432;28;45568;-86
2021/08/02 10:14:58;;;;;;;;;5.00;5.00;;;;;24.23;44.97;101157.56;4993500;28;45435;-86
2021/08/02 10:17:23;;;;;;;;;3.00;3.00;;;;;24.20;44.55;101152.34;4979333;28;45820;-87
2021/08/02 10:19:59;;;;;;;;;5.67;5.00;;;;;24.24;44.54;101148.53;4985690;28;45446;-83
2021/08/02 10:26:34;;;;;;;;;;;;;;;;;;;;;
2021/08/02 10:32:57;;;;;;;;;4.00;4.00;;;;;24.66;43.15;101149.84;4753558;29;45410;-87
2021/08/02 10:35:40;;;;;;;;;5.00;3.67;;;;;24.76;43.72;101150.19;4751621;29;45470;-87
2021/08/02 10:38:17;;;;;;;;;4.67;4.67;;;;;24.91;42.74;101159.22;4868421;29;47000;-85
2021/08/02 10:40:50;;;;;;;;;8.00;6.00;;;;;24.99;42.48;101154.25;4884586;29;46332;-84
2021/08/02 10:43:30;;;;;;;;;4.00;4.00;;;;;25.08;42.26;101146.53;4884164;29;45411;-83
2021/08/02 10:46:00;;;;;;;;;4.00;4.00;;;;;25.19;42.08;101145.06;4922658;28;46257;-86
2021/08/02 10:48:28;;;;;;;;;2.33;2.33;;;;;25.34;42.32;101143.28;4994032;28;45510;-86
2021/08/02 10:50:56;;;;;;;;;6.00;6.00;;;;;25.49;41.89;101145.06;4994000;28;45263;-84
2021/08/02 10:53:25;;;;;;;;;6.00;5.00;;;;;25.51;41.88;101138.63;5014130;28;45377;-86
2021/08/02 10:55:52;;;;;;;;;3.00;3.00;;;;;25.56;41.64;101129.41;5004152;28;46024;-86
2021/08/02 10:58:29;;;;;;;;;4.33;4.33;;;;;25.69;41.47;101142.03;4991296;28;47374;-87
2021/08/02 11:01:00;;;;;;;;;4.33;4.33;;;;;25.75;41.56;101138.97;4972896;28;46082;-87
2021/08/02 11:03:44;;;;;;;;;4.67;4.67;;;;;25.85;41.28;101127.63;4985699;28;45379;-86
2021/08/02 11:06:16;;;;;;;;;4.33;4.33;;;;;25.98;40.79;101141.25;4981561;28;45493;-86
2021/08/02 11:08:49;;;;;;;;;3.00;3.00;;;;;26.03;40.50;101141.81;4998368;28;46141;-89
2021/08/02 11:11:21;;;;;;;;;2.67;2.67;;;;;26.13;40.52;101134.91;4974264;28;45263;-87
2021/08/02 11:13:47;;;;;;;;;4.00;4.00;;;;;26.22;40.54;101136.13;4986843;28;45416;-85
2021/08/02 11:16:12;;;;;;;;;4.67;4.67;;;;;26.31;40.27;101140.97;5000286;28;45530;-85
2021/08/02 11:18:46;;;;;;;;;5.00;4.33;;;;;26.29;40.42;101135.66;4994251;28;46261;-85
2021/08/02 11:21:25;;;;;;;;;2.33;2.33;;;;;26.26;40.43;101137.69;4996368;28;45771;-87
2021/08/02 11:23:54;;;;;;;;;5.33;4.67;;;;;26.25;40.39;101134.13;4993164;28;45540;-83
2021/08/02 11:26:21;;;;;;;;;4.33;4.33;;;;;26.15;40.05;101128.44;5005878;28;45548;-86
2021/08/02 11:28:49;;;;;;;;;6.67;4.00;;;;;26.07;39.96;101128.06;5005014;28;46055;-86
2021/08/02 11:31:15;;;;;;;;;3.33;3.33;;;;;26.08;40.33;101128.91;4989400;28;45330;-85
2021/08/02 11:33:42;;;;;;;;;3.67;3.00;;;;;26.08;40.40;101115.41;5005436;28;45314;-84
2021/08/02 11:36:19;;;;;;;;;6.67;6.67;;;;;26.14;40.50;101120.41;4998369;28;45459;-85
2021/08/02 11:38:49;;;;;;;;;2.67;2.67;;;;;26.32;40.50;101121.09;4986372;28;45738;-83
2021/08/02 11:41:29;;;;;;;;;4.00;2.67;;;;;26.51;39.82;101118.09;5005703;28;45736;-86
2021/08/02 11:43:58;;;;;;;;;2.33;2.33;;;;;26.69;39.01;101116.91;5009181;28;45445;-83
2021/08/02 11:46:26;;;;;;;;;3.00;3.00;;;;;26.90;39.23;101114.63;5007632;28;45416;-87
2021/08/02 11:48:52;;;;;;;;;4.00;3.33;;;;;27.13;39.11;101114.94;5005701;28;45601;-90
2021/08/02 11:51:18;;;;;;;;;5.00;4.00;;;;;27.32;38.72;101115.47;5007670;28;45245;-87
2021/08/02 11:53:44;;;;;;;;;2.67;2.67;;;;;27.44;38.28;101114.59;5003089;28;45561;-85
2021/08/02 11:56:10;;;;;;;;;5.00;5.00;;;;;27.53;37.91;101110.41;5029870;28;45595;-90
2021/08/02 11:58:46;;;;;;;;;3.67;3.67;;;;;27.61;38.40;101115.28;5023177;28;46337;-88
2021/08/02 12:01:12;;;;;;;;;3.00;3.00;;;;;27.70;37.56;101117.38;5007457;28;45393;-91
2021/08/02 12:03:46;;;;;;;;;3.33;3.33;;;;;27.86;37.44;101112.63;5006674;28;45344;-91
2021/08/02 12:06:11;;;;;;;;;5.00;5.00;;;;;27.86;37.16;101107.22;4995293;28;45586;-88
2021/08/02 12:08:51;;;;;;;;;5.00;5.00;;;;;27.57;36.02;101114.63;5019436;28;45445;-87
2021/08/02 12:11:19;;;;;;;;;4.00;4.00;;;;;27.21;36.68;101118.91;4979980;28;45283;-86
2021/08/02 12:13:48;;;;;;;;;7.33;4.00;;;;;26.94;37.31;101112.59;4990703;28;45469;-85
2021/08/02 12:16:30;;;;;;;;;3.00;3.00;;;;;26.68;37.64;101109.78;4995150;28;45345;-82
2021/08/02 12:19:10;;;;;;;;;5.33;4.33;;;;;26.61;38.05;101116.56;5013729;28;45414;-82
2021/08/02 12:21:37;;;;;;;;;1.00;1.00;;;;;26.57;38.19;101115.00;4990442;28;45329;-82
2021/08/02 12:24:13;;;;;;;;;4.33;4.33;;;;;26.44;38.64;101111.34;5018481;28;45265;-82
2021/08/02 12:27:04;;;;;;;;;4.33;3.33;;;;;26.33;38.78;101122.81;4989023;28;45499;-82
2021/08/02 12:43:25;;;;;;;;;3.00;3.00;;;;;25.69;41.42;101116.91;4905843;28;45319;-84
2021/08/02 12:49:29;;;;;;;;;;;;;;;;;;;;;
2021/08/02 12:52:19;;;;;;;;;6.00;6.00;;;;;25.25;43.80;101140.16;4905235;28;72309;-84
2021/08/02 13:05:05;;;;;;;;;5.00;4.75;;;;;25.56;47.69;101103.31;4880470;29;45394;-83
2021/08/02 13:07:31;;;;;;;;;3.00;3.00;;;;;25.79;46.90;101101.88;4895516;29;47759;-82
2021/08/02 13:09:57;;;;;;;;;6.25;4.25;;;;;26.03;45.88;101099.50;4903283;28;45291;-83
2021/08/02 13:12:23;;;;;;;;;3.33;3.33;;;;;26.24;44.98;101099.97;4992867;28;45281;-84
2021/08/02 13:14:49;;;;;;;;;4.67;4.67;;;;;26.43;44.31;101093.41;4979779;28;45480;-82
2021/08/02 13:17:15;;;;;;;;;4.00;4.00;;;;;26.70;44.66;101101.56;4992964;28;46304;-82
2021/08/02 13:19:42;;;;;;;;;4.00;4.00;;;;;27.03;44.12;101104.75;4978831;28;45416;-82
2021/08/02 13:22:10;;;;;;;;;5.33;5.33;;;;;27.26;43.70;101094.22;4993173;28;45367;-82
2021/08/02 13:27:20;;;;;;;;;3.00;3.00;;;;;27.33;42.05;101100.97;4987916;28;45301;-84
2021/08/02 13:29:47;;;;;;;;;5.33;4.00;;;;;27.33;42.52;101100.09;4982449;28;45435;-79
2021/08/02 13:32:15;;;;;;;;;5.33;5.00;;;;;27.24;42.15;101096.19;4990401;28;45449;-88
2021/08/02 13:34:46;;;;;;;;;3.67;3.67;;;;;27.15;41.97;101092.22;4985423;28;45496;-87
2021/08/02 13:37:13;;;;;;;;;4.67;4.00;;;;;27.04;42.63;101092.09;4962956;28;47268;-82
2021/08/02 13:39:40;;;;;;;;;6.50;6.00;;;;;26.98;42.79;101093.38;4992627;28;45491;-82
2021/08/02 13:42:27;;;;;;;;;5.00;5.00;;;;;26.84;43.14;101093.44;4970234;28;45452;-83
2021/08/02 13:45:01;;;;;;;;;4.75;4.00;;;;;26.64;43.00;101088.47;4990934;28;45582;-89
2021/08/02 13:47:28;;;;;;;;;6.00;4.00;;;;;26.51;43.48;101080.28;4989141;28;48314;-85
2021/08/02 13:49:54;;;;;;;;;4.33;4.33;;;;;26.56;44.42;101084.44;5005982;28;45423;-89
2021/08/02 13:52:20;;;;;;;;;6.67;6.00;;;;;26.61;44.02;101087.72;5007734;28;45304;-90
2021/08/02 13:54:48;;;;;;;;;7.33;6.00;;;;;26.67;43.77;101080.16;4995061;28;45364;-83
2021/08/02 13:57:29;;;;;;;;;;;;;;;;;;;;;
2021/08/02 14:00:17;;;;;;;;;4.33;4.33;;;;;26.40;41.90;101087.22;4990377;28;73045;-90
2021/08/02 14:03:22;;;;;;;;;5.67;4.00;;;;;26.05;41.78;101089.50;4982727;28;45267;-88
2021/08/02 14:06:00;;;;;;;;;3.67;3.67;;;;;25.73;42.65;101081.53;5012760;28;45303;-88
2021/08/02 14:08:30;;;;;;;;;4.00;4.00;;;;;25.49;42.76;101073.13;5008991;28;46494;-86
2021/08/02 14:11:29;;;;;;;;;4.67;4.67;;;;;25.35;43.10;101067.72;4990678;28;45588;-91
2021/08/02 14:14:00;;;;;;;;;2.67;2.67;;;;;25.26;43.60;101073.66;5010649;28;45474;-89
2021/08/02 14:16:34;;;;;;;;;4.67;4.67;;;;;25.18;43.79;101059.78;4980990;28;45563;-87
2021/08/02 14:19:14;;;;;;;;;4.00;3.75;;;;;25.25;43.30;101070.09;4991907;28;46010;-87
2021/08/02 14:21:46;;;;;;;;;4.00;4.00;;;;;25.20;43.64;101055.16;4983647;28;45411;-90
2021/08/02 14:24:49;;;;;;;;;;;;;;;;;;;;;
2021/08/02 14:27:24;;;;;;;;;5.00;4.33;;;;;25.22;43.08;101066.72;5003938;28;71502;-84
2021/08/02 14:30:06;;;;;;;;;;;;;;;;;;;;;
2021/08/02 14:32:36;;;;;;;;;3.00;3.00;;;;;25.14;42.61;101058.19;5011837;28;72756;-83
2021/08/02 14:35:02;;;;;;;;;4.00;4.00;;;;;25.19;42.26;101059.69;4989564;28;45298;-84
2021/08/02 14:37:44;;;;;;;;;5.67;4.00;;;;;25.20;42.13;101055.16;4994190;28;45191;-86
2021/08/02 14:40:11;;;;;;;;;5.00;5.00;;;;;25.25;41.69;101039.59;5007345;28;46099;-80
2021/08/02 14:42:42;;;;;;;;;2.67;2.67;;;;;25.46;41.83;101037.41;4988392;28;45410;-82
2021/08/02 14:45:08;;;;;;;;;4.00;3.00;;;;;25.72;41.63;101041.19;4977575;28;45515;-81
2021/08/02 14:47:35;;;;;;;;;3.00;2.00;;;;;25.92;40.64;101031.88;5004103;28;45910;-83
2021/08/02 14:50:13;;;;;;;;;2.33;2.33;;;;;26.23;41.00;101030.78;4968828;28;47125;-84
2021/08/02 14:52:46;;;;;;;;;3.00;3.00;;;;;26.49;39.62;101026.38;4999263;28;45541;-85
2021/08/02 14:55:17;;;;;;;;;1.00;1.00;;;;;26.83;38.83;101034.94;4998405;28;45799;-82
2021/08/02 14:57:44;;;;;;;;;3.00;3.00;;;;;27.10;38.58;101034.91;4982057;28;46130;-82
2021/08/02 15:00:14;;;;;;;;;3.67;2.67;;;;;27.29;37.94;101021.03;4992871;28;45407;-82
2021/08/02 15:02:45;;;;;;;;;3.00;3.00;;;;;27.48;37.59;101031.44;4998794;28;45855;-81
2021/08/02 15:05:11;;;;;;;;;3.00;3.00;;;;;27.68;37.66;101033.59;5002797;28;45356;-81
2021/08/02 15:07:42;;;;;;;;;1.67;1.67;;;;;27.90;36.76;101030.22;5000179;28;45505;-82
2021/08/02 15:10:08;;;;;;;;;3.00;3.00;;;;;28.23;36.68;101027.88;5000518;28;46087;-81
2021/08/02 15:12:34;;;;;;;;;3.33;2.00;;;;;28.51;35.88;101024.03;4984019;28;45420;-83
2021/08/02 15:14:59;;;;;;;;;3.67;2.33;;;;;28.54;35.59;101019.25;4983175;28;45375;-83
2021/08/02 15:17:27;;;;;;;;;1.67;1.67;;;;;28.37;35.24;101022.34;5003588;28;45455;-81
2021/08/02 15:20:31;;;;;;;;;3.00;1.33;;;;;28.05;35.76;101047.22;5009392;28;45379;-78
2021/08/02 15:23:02;;;;;;;;;3.33;3.33;;;;;27.44;38.00;101052.41;4984229;28;45779;-81
2021/08/02 15:26:00;;;;;;;;;;;;;;;;;;;;;
2021/08/02 15:28:28;;;;;;;;;2.33;1.67;;;;;26.40;40.84;101062.06;5001549;28;72676;-82
2021/08/02 15:30:56;;;;;;;;;3.33;3.00;;;;;26.00;41.44;101071.88;4982420;28;48133;-81
2021/08/02 15:33:27;;;;;;;;;2.67;2.67;;;;;25.59;43.05;101069.88;4970410;28;45453;-82
2021/08/02 15:36:04;;;;;;;;;2.00;2.00;;;;;25.19;43.91;101061.53;4995218;28;45436;-81
2021/08/02 15:38:56;;;;;;;;;2.00;2.00;;;;;24.73;45.85;101072.28;4981210;28;45885;-80
2021/08/02 15:41:51;;;;;;;;;3.00;3.00;;;;;24.31;47.59;101074.59;4997719;28;47901;-79
2021/08/02 15:44:29;;;;;;;;;3.00;3.00;;;;;23.95;47.70;101081.06;5001672;28;45798;-84
2021/08/02 15:47:02;;;;;;;;;3.00;3.00;;;;;23.81;47.63;101090.81;5005941;28;45474;-81
2021/08/02 15:49:30;;;;;;;;;4.33;3.00;;;;;23.67;48.72;101092.38;4997352;28;45302;-80
2021/08/02 15:52:27;;;;;;;;;3.33;3.00;;;;;23.50;48.53;101089.72;4993267;28;45589;-84
2021/08/02 15:55:47;;;;;;;;;3.00;2.00;;;;;23.46;48.93;101105.13;5001574;28;45530;-81
2021/08/02 15:58:34;;;;;;;;;5.33;3.33;;;;;23.45;49.87;101097.16;4964109;28;45572;-80
2021/08/02 16:01:10;;;;;;;;;3.00;3.00;;;;;23.85;49.23;101087.00;5001909;28;45462;-83
2021/08/02 16:07:33;;;;;;;;;;;;;;;;;;;;;
2021/08/02 16:10:19;;;;;;;;;2.00;2.00;;;;;30.17;38.00;101087.16;4984029;28;68909;-83
2021/08/02 16:23:25;;;;;;;;;2.00;2.00;;;;;26.45;41.91;101084.25;4784744;29;45567;-85
2021/08/02 16:26:18;;;;;;;;;4.67;4.67;;;;;26.13;42.91;101084.47;4811997;29;45445;-85
2021/08/02 16:32:22;;;;;;;;;;;;;;;;;;;;;
2021/08/02 16:35:27;;;;;;;;;3.00;3.00;;;;;25.09;45.89;101070.09;4836646;29;68466;-84
2021/08/02 16:38:37;;;;;;;;;;;;;;;;;;;;;
2021/08/02 16:52:14;;;;;;;;;4.00;4.00;;;;;25.28;45.34;101066.34;4808869;29;45510;-90
2021/08/02 16:54:49;;;;;;;;;3.67;3.67;;;;;25.23;45.73;101066.66;4818152;29;47098;-88
2021/08/02 16:57:15;;;;;;;;;3.00;3.00;;;;;25.16;45.53;101054.50;4826475;29;45673;-80